»·PEaware :: SWA1628 KDEN-KTUS

SWA1628 :: KDEN-KTUS

FLIGHT INFORMATION

Flight Status: Arrived
Operator:
Southwest Airlines
More flights by this operator :: More flights under this callsign
Pilot: Tristan Z. (4790)
Aircraft: BOEING 737-700
(B737)
More flights by this aircraft type
Origin: KDEN Denver Intl
United States
Destination: KTUS Tucson Intl
United States
More flights between these airports :: More routes between these airports
Route: SMMUR2 DAAYE TCS SSO ZONNA1
File this flight plan on PilotEdge
Remarks:
Altitude:
(Current/Filed)
36,000ft
Speed:
(Current/Filed)
455kts
Departed: 26-Dec-20 09:01 AM
Arrived: 26-Dec-20 10:38 AM
Distance/Time
Traveled:
555nm/1:37
Distance/Time
To Go:
Arrived

Flight Plot

Page will automatically refresh every two minutes.

Flight plan parsing failed; only flown route is shown


Map Options




Map Legend


Flown Route
Filed Route
Departure Airport
Arrival Airport
Navaid (VOR, NDB)
Fix

Horizontal Profiles

Position Reports

Time Latitude Longitude Heading Altitude Ground
Speed
26-Dec-20 08:42 39.863564 -104.673073 180 5442ft 0kts
26-Dec-20 08:43 39.863564 -104.673073 180 5442ft 0kts
26-Dec-20 08:44 39.863564 -104.673073 180 5442ft 0kts
26-Dec-20 08:45 39.863564 -104.673073 180 5442ft 0kts
26-Dec-20 08:46 39.863564 -104.673073 180 5442ft 0kts
26-Dec-20 08:47 39.863564 -104.673073 180 5442ft 0kts
26-Dec-20 08:48 39.863564 -104.673073 180 5442ft 0kts
26-Dec-20 08:49 39.863564 -104.673073 180 5442ft 0kts
26-Dec-20 08:50 39.863564 -104.673073 180 5442ft 0kts
26-Dec-20 08:51 39.863564 -104.673073 180 5442ft 0kts
26-Dec-20 08:52 39.863712 -104.673072 179 5442ft 2kts
26-Dec-20 08:53 39.864216 -104.673070 180 5442ft 0kts
26-Dec-20 08:54 39.864215 -104.673070 180 5442ft 0kts
26-Dec-20 08:55 39.864121 -104.672703 89 5441ft 6kts
26-Dec-20 08:56 39.864667 -104.667529 88 5441ft 17kts
26-Dec-20 08:57 39.864978 -104.664439 88 5442ft 9kts
26-Dec-20 08:58 39.863036 -104.662331 182 5441ft 14kts
26-Dec-20 08:59 39.861080 -104.660961 89 5442ft 11kts
26-Dec-20 09:00 39.842326 -104.660329 182 5699ft 166kts
26-Dec-20 09:01 39.791827 -104.661262 182 7920ft 206kts
26-Dec-20 09:02 39.722337 -104.661951 181 9747ft 287kts
26-Dec-20 09:03 39.636061 -104.673699 201 12091ft 342kts
26-Dec-20 09:04 39.549531 -104.730586 213 15264ft 358kts
26-Dec-20 09:05 39.464417 -104.800905 215 18253ft 372kts
26-Dec-20 09:06 39.375659 -104.873362 215 21024ft 384kts
26-Dec-20 09:07 39.284955 -104.947149 215 23623ft 390kts
26-Dec-20 09:08 39.192362 -105.022271 214 25936ft 399kts
26-Dec-20 09:09 39.094727 -105.093142 209 27957ft 411kts
26-Dec-20 09:10 38.991282 -105.159918 209 29730ft 423kts
26-Dec-20 09:11 38.885808 -105.228064 211 31499ft 431kts
26-Dec-20 09:12 38.779364 -105.296591 211 33548ft 426kts
26-Dec-20 09:13 38.674061 -105.364175 211 35390ft 421kts
26-Dec-20 09:14 38.567884 -105.432159 211 36047ft 440kts
26-Dec-20 09:15 38.458218 -105.502014 211 36095ft 438kts
26-Dec-20 09:16 38.348669 -105.570270 211 36148ft 440kts
26-Dec-20 09:17 38.239037 -105.638355 211 36178ft 440kts
26-Dec-20 09:18 38.128977 -105.706467 210 36185ft 440kts
26-Dec-20 09:19 38.019050 -105.773608 206 36201ft 443kts
26-Dec-20 09:20 37.899814 -105.816612 199 36238ft 448kts
26-Dec-20 09:21 37.779520 -105.857051 199 36238ft 447kts
26-Dec-20 09:22 37.659608 -105.897274 199 36238ft 447kts
26-Dec-20 09:23 37.539512 -105.937437 199 36238ft 448kts
26-Dec-20 09:25 37.419356 -105.977462 199 36238ft 447kts
26-Dec-20 09:26 37.299388 -106.017310 199 36238ft 447kts
26-Dec-20 09:27 37.179077 -106.057128 199 36237ft 447kts
26-Dec-20 09:28 37.058906 -106.096788 199 36239ft 451kts
26-Dec-20 09:29 36.935837 -106.137271 199 36239ft 464kts
26-Dec-20 09:30 36.811778 -106.177901 199 36242ft 461kts
26-Dec-20 09:31 36.687691 -106.218459 199 36245ft 461kts
26-Dec-20 09:32 36.563823 -106.258809 199 36240ft 462kts
26-Dec-20 09:33 36.439880 -106.299023 199 36229ft 461kts
26-Dec-20 09:34 36.316198 -106.339015 199 36227ft 462kts
26-Dec-20 09:35 36.192444 -106.378908 199 36227ft 461kts
26-Dec-20 09:36 36.068222 -106.418827 199 36231ft 463kts
26-Dec-20 09:37 35.943839 -106.458645 199 36228ft 462kts
26-Dec-20 09:38 35.819958 -106.498196 199 36224ft 462kts
26-Dec-20 09:38 35.716217 -106.531200 199 36226ft 461kts
26-Dec-20 09:40 35.571243 -106.577191 199 36235ft 462kts
26-Dec-20 09:41 35.447392 -106.616337 199 36248ft 461kts
26-Dec-20 09:42 35.323107 -106.655505 199 36261ft 462kts
26-Dec-20 09:42 35.219698 -106.688019 199 36258ft 462kts
26-Dec-20 09:43 35.095251 -106.727025 198 36257ft 462kts
26-Dec-20 09:45 34.950252 -106.772241 200 36260ft 464kts
26-Dec-20 09:46 34.824028 -106.811527 201 36263ft 471kts
26-Dec-20 09:46 34.718552 -106.844221 202 36261ft 469kts
26-Dec-20 09:47 34.592780 -106.883142 202 36264ft 468kts
26-Dec-20 09:48 34.466663 -106.922017 202 36266ft 468kts
26-Dec-20 09:49 34.340979 -106.960656 203 36267ft 467kts
26-Dec-20 09:50 34.215282 -106.999182 203 36268ft 467kts
26-Dec-20 09:51 34.089918 -107.037488 203 36267ft 465kts
26-Dec-20 09:52 33.964525 -107.075689 203 36268ft 466kts
26-Dec-20 09:53 33.839187 -107.113739 203 36260ft 465kts
26-Dec-20 09:54 33.714089 -107.151615 203 36257ft 465kts
26-Dec-20 09:55 33.588692 -107.189511 203 36243ft 466kts
26-Dec-20 09:56 33.462983 -107.227325 204 36243ft 466kts
26-Dec-20 09:57 33.339947 -107.269521 219 36256ft 445kts
26-Dec-20 09:58 33.248560 -107.359854 240 36248ft 416kts
26-Dec-20 09:59 33.186487 -107.473090 248 36243ft 406kts
26-Dec-20 10:00 33.128673 -107.588876 247 36242ft 407kts
26-Dec-20 10:01 33.070646 -107.704350 247 36257ft 404kts
26-Dec-20 10:02 33.013437 -107.817903 247 36260ft 396kts
26-Dec-20 10:03 32.956928 -107.929796 247 36261ft 390kts
26-Dec-20 10:04 32.901034 -108.040197 247 36260ft 391kts
26-Dec-20 10:05 32.844814 -108.150766 247 36250ft 391kts
26-Dec-20 10:06 32.788448 -108.261381 247 36250ft 392kts
26-Dec-20 10:07 32.731950 -108.371884 247 36247ft 391kts
26-Dec-20 10:08 32.675392 -108.482183 247 36245ft 392kts
26-Dec-20 10:09 32.618728 -108.592362 247 36244ft 391kts
26-Dec-20 10:10 32.561988 -108.702325 247 36261ft 393kts
26-Dec-20 10:11 32.505018 -108.812388 247 36265ft 391kts
26-Dec-20 10:12 32.447917 -108.922564 247 35848ft 399kts
26-Dec-20 10:13 32.390466 -109.032913 247 33395ft 397kts
26-Dec-20 10:14 32.331477 -109.146142 246 30802ft 410kts
26-Dec-20 10:15 32.275632 -109.263755 257 28308ft 400kts
26-Dec-20 10:16 32.256956 -109.385429 267 26800ft 370kts
26-Dec-20 10:17 32.244855 -109.505661 267 25372ft 366kts
26-Dec-20 10:18 32.232758 -109.623913 267 23939ft 361kts
26-Dec-20 10:19 32.220680 -109.741164 266 22550ft 357kts
26-Dec-20 10:20 32.208564 -109.857160 266 21163ft 354kts
26-Dec-20 10:21 32.197098 -109.968072 266 19573ft 337kts
26-Dec-20 10:22 32.185847 -110.077751 266 17892ft 334kts
26-Dec-20 10:23 32.174672 -110.185702 266 16194ft 330kts
26-Dec-20 10:24 32.163629 -110.292081 265 14492ft 325kts
26-Dec-20 10:25 32.165761 -110.396264 279 13543ft 309kts
26-Dec-20 10:26 32.177068 -110.492755 279 12539ft 304kts
26-Dec-20 10:27 32.189005 -110.591573 279 11531ft 303kts
26-Dec-20 10:28 32.200766 -110.689878 279 10529ft 301kts
26-Dec-20 10:29 32.221273 -110.783827 289 9400ft 285kts
26-Dec-20 10:30 32.245362 -110.869985 289 8104ft 272kts
26-Dec-20 10:31 32.268330 -110.952849 290 6637ft 255kts
26-Dec-20 10:32 32.272725 -111.028005 222 5142ft 237kts
26-Dec-20 10:33 32.219549 -111.054985 166 5005ft 199kts
26-Dec-20 10:34 32.180145 -111.014835 133 4153ft 165kts
26-Dec-20 10:35 32.151811 -110.981346 134 3399ft 137kts
26-Dec-20 10:36 32.124444 -110.949169 134 2712ft 138kts
26-Dec-20 10:37 32.114902 -110.936326 41 2651ft 7kts
26-Dec-20 10:38 32.117472 -110.938079 21 2651ft 14kts
26-Dec-20 10:39 32.118888 -110.937554 42 2650ft 0kts

Navigation Log

Ident Type
Flight plan parsing failed, navigation log unavailable